createdAt,value
2022-10-06T00:00:50.080Z,98315.63
2022-10-06T00:03:39.268Z,98314.75
2022-10-06T00:06:28.046Z,98319.97
2022-10-06T00:09:10.432Z,98328.94
2022-10-06T00:11:59.012Z,98337.44
2022-10-06T00:14:41.321Z,98334.00
2022-10-06T00:17:30.026Z,98340.94
2022-10-06T00:20:13.365Z,98347.44
2022-10-06T00:23:02.028Z,98352.69
2022-10-06T00:25:44.297Z,98354.25
2022-10-06T00:28:33.533Z,98355.66
2022-10-06T00:31:17.299Z,98351.69
2022-10-06T00:34:06.023Z,98350.91
2022-10-06T00:36:48.318Z,98360.63
2022-10-06T00:39:37.279Z,98357.97
2022-10-06T00:42:37.319Z,98366.22
2022-10-06T00:45:29.072Z,98369.84
2022-10-06T00:48:17.307Z,98363.66
2022-10-06T00:51:07.046Z,98375.63
2022-10-06T00:53:50.326Z,98370.53
2022-10-06T00:56:40.057Z,98366.44
2022-10-06T00:59:26.353Z,98378.78
2022-10-06T01:02:26.100Z,98375.16
2022-10-06T01:05:23.869Z,98382.91
2022-10-06T01:08:13.015Z,98386.66
2022-10-06T01:10:55.306Z,98384.19
2022-10-06T01:13:45.140Z,98386.66
2022-10-06T01:16:33.290Z,98388.28
2022-10-06T01:19:55.012Z,98397.53
2022-10-06T01:23:21.323Z,98396.13
2022-10-06T01:26:15.345Z,98395.25
2022-10-06T01:28:59.008Z,98394.59
2022-10-06T01:31:47.924Z,98391.56
2022-10-06T01:34:37.994Z,98400.78
2022-10-06T01:37:20.184Z,98398.22
2022-10-06T01:40:10.062Z,98395.75
2022-10-06T01:42:59.302Z,98408.91
2022-10-06T01:45:42.063Z,98405.31
2022-10-06T01:48:31.657Z,98421.97
2022-10-06T01:51:17.034Z,98404.25
2022-10-06T01:54:05.914Z,98417.38
2022-10-06T01:56:55.037Z,98412.09
2022-10-06T01:59:43.309Z,98435.22
2022-10-06T02:02:25.999Z,98426.00
2022-10-06T02:05:22.874Z,98436.66
2022-10-06T02:08:12.066Z,98434.41
2022-10-06T02:10:55.305Z,98447.34
2022-10-06T02:13:46.052Z,98446.13
2022-10-06T02:16:28.415Z,98441.31
2022-10-06T02:19:17.008Z,98455.31
2022-10-06T02:21:59.594Z,98450.13
2022-10-06T02:24:48.027Z,98455.97
2022-10-06T02:27:36.909Z,98457.94
2022-10-06T02:30:28.062Z,98461.25
2022-10-06T02:33:11.445Z,98469.75
2022-10-06T02:36:03.990Z,98471.78
2022-10-06T02:38:47.304Z,98465.31
2022-10-06T02:41:36.009Z,98458.91
2022-10-06T02:44:24.919Z,98465.69
2022-10-06T02:47:14.014Z,98471.91
2022-10-06T02:50:04.029Z,98470.94
2022-10-06T02:52:47.005Z,98463.75
2022-10-06T02:55:35.994Z,98461.75
2022-10-06T02:58:25.259Z,98464.78
2022-10-06T03:01:14.292Z,98475.56
2022-10-06T03:04:03.070Z,98472.53
2022-10-06T03:06:52.288Z,98473.56
2022-10-06T03:09:39.019Z,98464.13
2022-10-06T03:12:28.006Z,98475.53
2022-10-06T03:15:10.289Z,98458.22
2022-10-06T03:18:00.021Z,98457.09
2022-10-06T03:20:49.910Z,98467.56
2022-10-06T03:23:39.066Z,98477.50
2022-10-06T03:26:23.576Z,98472.09
2022-10-06T03:29:15.687Z,98469.31
2022-10-06T03:32:02.325Z,98488.56
2022-10-06T03:34:54.026Z,98479.56
2022-10-06T03:37:37.461Z,98488.59
2022-10-06T03:40:25.996Z,98486.34
2022-10-06T03:43:08.307Z,98484.84
2022-10-06T03:46:05.005Z,98492.97
2022-10-06T03:48:54.939Z,98489.88
2022-10-06T03:51:47.996Z,98480.41
2022-10-06T03:54:41.019Z,98487.31
2022-10-06T03:57:30.004Z,98488.69
2022-10-06T04:00:19.992Z,98493.03
2022-10-06T04:03:09.077Z,98490.72
2022-10-06T04:06:06.287Z,98496.00
2022-10-06T04:08:50.029Z,98505.59
2022-10-06T04:11:35.893Z,98498.06
2022-10-06T04:14:28.021Z,98493.06
2022-10-06T04:17:11.244Z,98505.56
2022-10-06T04:19:59.992Z,98501.25
2022-10-06T04:22:42.205Z,98506.00
2022-10-06T04:25:35.436Z,98501.78
2022-10-06T04:28:18.279Z,98502.84
2022-10-06T04:31:15.039Z,98505.16
2022-10-06T04:34:06.012Z,98497.06
2022-10-06T04:36:50.277Z,98499.41
2022-10-06T04:39:38.000Z,98485.56
2022-10-06T04:42:31.299Z,98485.75
2022-10-06T04:45:21.227Z,98476.53
2022-10-06T04:48:10.244Z,98480.94
2022-10-06T04:51:19.987Z,98476.69
2022-10-06T04:54:11.020Z,98481.88
2022-10-06T04:56:54.255Z,98479.84
2022-10-06T05:00:07.060Z,98479.81
2022-10-06T05:03:03.990Z,98480.03
2022-10-06T05:06:00.071Z,98473.41
2022-10-06T05:08:42.814Z,98468.88
2022-10-06T05:11:32.993Z,98465.63
2022-10-06T05:14:17.448Z,98469.56
2022-10-06T05:17:05.997Z,98465.00
2022-10-06T05:19:48.326Z,98457.94
2022-10-06T05:22:38.014Z,98461.34
2022-10-06T05:25:20.192Z,98463.91
2022-10-06T05:28:09.066Z,98452.94
2022-10-06T05:31:10.288Z,98449.97
2022-10-06T05:33:54.091Z,98464.31
2022-10-06T05:36:44.271Z,98459.50
2022-10-06T05:39:27.017Z,98456.81
2022-10-06T05:42:09.205Z,98452.63
2022-10-06T05:44:58.069Z,98446.13
2022-10-06T05:47:42.326Z,98441.81
2022-10-06T05:50:31.002Z,98442.31
2022-10-06T05:53:14.104Z,98436.84
2022-10-06T05:56:03.056Z,98440.06
2022-10-06T05:58:56.287Z,98442.13
2022-10-06T06:01:50.127Z,98442.66
2022-10-06T06:04:59.860Z,98445.38
2022-10-06T06:07:49.001Z,98451.50
2022-10-06T06:10:31.274Z,98441.47
2022-10-06T06:13:21.006Z,98440.91
2022-10-06T06:16:13.323Z,98429.94
2022-10-06T06:19:02.086Z,98423.22
2022-10-06T06:21:47.288Z,98422.34
2022-10-06T06:24:36.007Z,98422.34
2022-10-06T06:27:19.308Z,98422.28
2022-10-06T06:30:09.066Z,98415.00
2022-10-06T06:32:52.361Z,98405.25
2022-10-06T06:35:42.044Z,98410.34
2022-10-06T06:38:25.378Z,98410.63
2022-10-06T06:41:21.287Z,98416.81
2022-10-06T06:44:15.155Z,98398.56
2022-10-06T06:47:14.002Z,98402.91
2022-10-06T06:49:56.424Z,98409.88
2022-10-06T06:52:46.101Z,98402.78
2022-10-06T06:55:28.317Z,98398.41
2022-10-06T06:58:18.005Z,98393.09
2022-10-06T07:01:01.312Z,98397.09
2022-10-06T07:03:57.612Z,98389.50
2022-10-06T07:07:05.869Z,98387.75
2022-10-06T07:09:56.019Z,98379.47
2022-10-06T07:12:48.000Z,98382.47
2022-10-06T07:15:54.523Z,98369.81
2022-10-06T07:18:54.991Z,98367.28
2022-10-06T07:22:02.008Z,98364.09
2022-10-06T07:25:02.891Z,98359.25
2022-10-06T07:28:01.101Z,98349.38
2022-10-06T07:30:47.313Z,98348.22
2022-10-06T07:33:39.058Z,98339.72
2022-10-06T07:36:23.031Z,98346.75
2022-10-06T07:39:12.076Z,98327.63
2022-10-06T07:41:54.347Z,98327.78
2022-10-06T07:44:44.020Z,98319.63
2022-10-06T07:47:26.280Z,98320.22
2022-10-06T07:50:15.980Z,98319.88
2022-10-06T07:52:58.298Z,98306.47
2022-10-06T07:55:52.019Z,98307.66
2022-10-06T07:58:35.282Z,98297.38
2022-10-06T08:01:27.125Z,98298.41
2022-10-06T08:04:09.766Z,98296.78
2022-10-06T08:07:05.991Z,98291.66
2022-10-06T08:09:54.305Z,98284.97
2022-10-06T08:12:43.077Z,98278.38
2022-10-06T08:15:31.314Z,98273.50
2022-10-06T08:18:33.691Z,98255.78
2022-10-06T08:21:29.083Z,98260.66
2022-10-06T08:24:11.988Z,98263.66
2022-10-06T08:27:00.979Z,98259.88
2022-10-06T08:29:43.343Z,98254.00
2022-10-06T08:32:33.060Z,98249.47
2022-10-06T08:35:15.441Z,98250.31
2022-10-06T08:38:04.093Z,98242.97
2022-10-06T08:40:49.299Z,98243.72
2022-10-06T08:43:41.096Z,98236.69
2022-10-06T08:46:24.888Z,98233.63
2022-10-06T08:49:15.079Z,98231.38
2022-10-06T08:52:22.361Z,98227.75
2022-10-06T08:55:34.999Z,98223.25
2022-10-06T08:58:54.916Z,98215.38
2022-10-06T09:01:53.106Z,98215.13
2022-10-06T09:04:46.935Z,98212.53
2022-10-06T09:08:25.013Z,98207.22
2022-10-06T09:11:31.078Z,98204.44
2022-10-06T09:14:26.838Z,98205.22
2022-10-06T09:17:24.000Z,98194.47
2022-10-06T09:20:12.322Z,98196.72
2022-10-06T09:23:05.071Z,98191.97
2022-10-06T09:25:47.280Z,98193.97
2022-10-06T09:28:36.101Z,98193.91
2022-10-06T09:31:39.372Z,98185.38
2022-10-06T09:34:37.093Z,98181.47
2022-10-06T09:37:20.322Z,98178.66
2022-10-06T09:40:08.093Z,98174.94
2022-10-06T09:42:54.611Z,98173.13
2022-10-06T09:45:43.071Z,98166.81
2022-10-06T09:48:31.299Z,98164.22
2022-10-06T09:51:20.056Z,98164.88
2022-10-06T09:54:31.416Z,98158.66
2022-10-06T09:57:34.004Z,98161.44
2022-10-06T10:00:41.390Z,98149.16
2022-10-06T10:03:33.992Z,98144.84
2022-10-06T10:06:37.287Z,98142.25
2022-10-06T10:09:29.028Z,98144.00
2022-10-06T10:12:31.988Z,98146.06
2022-10-06T10:15:20.027Z,98137.25
2022-10-06T10:18:14.502Z,98139.84
2022-10-06T10:21:05.015Z,98135.53
2022-10-06T10:24:03.456Z,98135.22
2022-10-06T10:27:02.030Z,98140.78
2022-10-06T10:29:53.346Z,98138.13
2022-10-06T10:33:05.022Z,98135.94
2022-10-06T10:35:59.009Z,98131.22
2022-10-06T10:38:46.320Z,98130.22
2022-10-06T10:41:42.994Z,98130.38
2022-10-06T10:44:36.314Z,98134.66
2022-10-06T10:47:46.014Z,98126.50
2022-10-06T10:50:37.414Z,98130.06
2022-10-06T10:53:29.010Z,98126.78
2022-10-06T10:56:13.330Z,98124.78
2022-10-06T10:59:15.005Z,98124.31
2022-10-06T11:02:27.481Z,98136.94
2022-10-06T11:05:50.876Z,98130.75
2022-10-06T11:09:18.057Z,98136.78
2022-10-06T11:12:25.302Z,98135.81
2022-10-06T11:15:20.022Z,98136.69
2022-10-06T11:18:09.298Z,98131.75
2022-10-06T11:21:13.997Z,98136.50
2022-10-06T11:24:18.473Z,98132.16
2022-10-06T11:27:25.054Z,98137.31
2022-10-06T11:30:10.308Z,98144.25
2022-10-06T11:33:08.977Z,98143.88
2022-10-06T11:35:53.273Z,98147.31
2022-10-06T11:38:50.020Z,98145.69
2022-10-06T11:41:41.565Z,98147.97
2022-10-06T11:44:55.006Z,98150.31
2022-10-06T11:47:40.286Z,98155.88
2022-10-06T11:50:46.081Z,98158.66
2022-10-06T11:53:40.586Z,98155.91
2022-10-06T11:56:29.023Z,98156.41
2022-10-06T11:59:21.288Z,98163.75
2022-10-06T12:02:10.153Z,98160.00
2022-10-06T12:05:54.894Z,98172.78
2022-10-06T12:08:48.012Z,98163.19
2022-10-06T12:11:48.756Z,98169.47
2022-10-06T12:17:59.348Z,98171.50
2022-10-06T12:21:06.010Z,98182.53
2022-10-06T12:24:11.037Z,98186.91
2022-10-06T12:27:16.061Z,98183.22
2022-10-06T12:30:15.125Z,98183.81
2022-10-06T12:33:06.931Z,98187.72
2022-10-06T12:35:50.136Z,98175.13
2022-10-06T12:38:48.305Z,98192.25
2022-10-06T12:42:03.129Z,98197.91
2022-10-06T12:44:56.126Z,98201.44
2022-10-06T12:47:46.056Z,98200.44
2022-10-06T12:50:37.004Z,98203.22
2022-10-06T12:53:33.930Z,98203.34
2022-10-06T12:56:36.074Z,98209.41
2022-10-06T12:59:49.996Z,98206.25
2022-10-06T13:02:38.398Z,98212.75
2022-10-06T13:05:21.019Z,98216.50
2022-10-06T13:08:17.145Z,98223.34
2022-10-06T13:11:35.366Z,98216.63
2022-10-06T13:14:22.105Z,98228.41
2022-10-06T13:17:10.361Z,98224.91
2022-10-06T13:19:53.050Z,98225.69
2022-10-06T13:22:42.538Z,98235.06
2022-10-06T13:25:24.987Z,98230.38
2022-10-06T13:28:14.380Z,98241.78
2022-10-06T13:31:29.095Z,98232.34
2022-10-06T13:34:28.175Z,98241.38
2022-10-06T13:37:11.072Z,98240.09
2022-10-06T13:40:00.847Z,98245.38
2022-10-06T13:42:43.987Z,98255.22
2022-10-06T13:45:32.895Z,98244.41
2022-10-06T13:48:23.089Z,98255.22
2022-10-06T13:51:12.368Z,98260.25
2022-10-06T13:53:58.063Z,98263.72
2022-10-06T13:56:48.328Z,98267.00
2022-10-06T13:59:41.998Z,98270.25
2022-10-06T14:02:38.617Z,98276.84
2022-10-06T14:05:52.040Z,98282.31
2022-10-06T14:08:41.548Z,98283.38
2022-10-06T14:11:33.135Z,98287.75
2022-10-06T14:14:26.413Z,98297.34
2022-10-06T14:17:08.977Z,98300.66
2022-10-06T14:20:05.088Z,98308.56
2022-10-06T14:22:54.536Z,98304.44
2022-10-06T14:25:37.109Z,98309.19
2022-10-06T14:28:19.305Z,98317.66
2022-10-06T14:31:13.477Z,98316.34
2022-10-06T14:34:04.539Z,98319.22
2022-10-06T14:36:47.084Z,98318.59
2022-10-06T14:39:36.347Z,98332.19
2022-10-06T14:42:20.109Z,98339.72
2022-10-06T14:45:10.085Z,98338.84
2022-10-06T14:47:54.042Z,98332.63
2022-10-06T14:50:44.800Z,98339.63
2022-10-06T14:53:28.069Z,98340.97
2022-10-06T14:56:26.041Z,98346.53
2022-10-06T14:59:20.009Z,98357.53
2022-10-06T15:02:09.054Z,98349.28
2022-10-06T15:04:58.358Z,98354.44
2022-10-06T15:07:59.054Z,98365.97
2022-10-06T15:10:47.410Z,98371.50
2022-10-06T15:13:30.008Z,98373.03
2022-10-06T15:16:19.695Z,98371.44
2022-10-06T15:19:04.368Z,98372.16
2022-10-06T15:21:53.334Z,98372.41
2022-10-06T15:24:36.106Z,98378.25
2022-10-06T15:27:42.561Z,98387.00
2022-10-06T15:30:25.089Z,98381.00
2022-10-06T15:33:14.373Z,98386.69
2022-10-06T15:36:22.334Z,98390.25
2022-10-06T15:39:33.370Z,98391.25
2022-10-06T15:42:16.044Z,98391.50
2022-10-06T15:45:07.626Z,98401.06
2022-10-06T15:47:52.113Z,98400.63
2022-10-06T15:50:41.851Z,98405.63
2022-10-06T15:53:25.000Z,98401.47
2022-10-06T15:56:20.883Z,98408.84
2022-10-06T15:59:10.118Z,98410.16
2022-10-06T16:01:57.425Z,98417.53
2022-10-06T16:04:46.982Z,98421.13
2022-10-06T16:07:32.431Z,98415.81
2022-10-06T16:10:21.050Z,98425.72
2022-10-06T16:13:03.510Z,98422.13
2022-10-06T16:16:04.208Z,98424.22
2022-10-06T16:18:46.482Z,98425.72
2022-10-06T16:21:37.134Z,98425.97
2022-10-06T16:24:19.535Z,98430.94
2022-10-06T16:27:08.130Z,98431.28
2022-10-06T16:29:50.437Z,98435.31
2022-10-06T16:32:39.267Z,98441.13
2022-10-06T16:35:22.539Z,98441.47
2022-10-06T16:38:11.035Z,98439.84
2022-10-06T16:41:10.329Z,98442.50
2022-10-06T16:44:01.082Z,98449.88
2022-10-06T16:46:43.429Z,98449.53
2022-10-06T16:49:32.427Z,98445.06
2022-10-06T16:52:14.350Z,98453.94
2022-10-06T16:55:04.232Z,98450.97
2022-10-06T16:57:52.452Z,98464.09
2022-10-06T17:00:35.133Z,98469.88
2022-10-06T17:03:23.391Z,98468.72
2022-10-06T17:06:18.082Z,98472.91
2022-10-06T17:09:09.353Z,98474.75
2022-10-06T17:11:55.016Z,98477.38
2022-10-06T17:14:43.321Z,98480.13
2022-10-06T17:17:26.045Z,98481.63
2022-10-06T17:20:09.083Z,98487.97
2022-10-06T17:22:58.051Z,98487.28
2022-10-06T17:25:47.476Z,98498.22
2022-10-06T17:28:30.048Z,98496.84
2022-10-06T17:31:19.038Z,98493.84
2022-10-06T17:34:08.044Z,98503.63
2022-10-06T17:36:58.969Z,98500.78
2022-10-06T17:39:46.172Z,98493.50
2022-10-06T17:42:36.101Z,98499.81
2022-10-06T17:45:21.401Z,98503.75
2022-10-06T17:48:11.028Z,98509.97
2022-10-06T17:51:05.427Z,98499.72
2022-10-06T17:53:59.000Z,98506.97
2022-10-06T17:56:54.947Z,98511.59
2022-10-06T17:59:43.996Z,98507.19
2022-10-06T18:02:26.502Z,98519.53
2022-10-06T18:05:14.977Z,98512.38
2022-10-06T18:07:59.656Z,98515.38
2022-10-06T18:11:13.977Z,98508.94
2022-10-06T18:13:56.452Z,98517.81
2022-10-06T18:16:52.075Z,98519.06
2022-10-06T18:19:39.458Z,98516.50
2022-10-06T18:22:27.990Z,98511.56
2022-10-06T18:25:11.009Z,98512.38
2022-10-06T18:27:59.999Z,98517.00
2022-10-06T18:30:42.318Z,98515.28
2022-10-06T18:36:39.954Z,98521.50
2022-10-06T18:39:22.170Z,98524.13
2022-10-06T18:42:13.065Z,98523.31
2022-10-06T18:45:26.033Z,98516.41
2022-10-06T18:48:27.816Z,98515.63
2022-10-06T18:51:16.972Z,98532.06
2022-10-06T18:54:05.304Z,98522.88
2022-10-06T18:56:57.963Z,98518.13
2022-10-06T18:59:47.978Z,98514.94
2022-10-06T19:02:30.416Z,98515.97
2022-10-06T19:05:18.954Z,98518.72
2022-10-06T19:08:02.807Z,98511.34
2022-10-06T19:11:11.986Z,98516.81
2022-10-06T19:14:01.019Z,98522.31
2022-10-06T19:16:54.015Z,98519.72
2022-10-06T19:19:38.250Z,98522.75
2022-10-06T19:22:31.966Z,98514.22
2022-10-06T19:25:14.965Z,98521.19
2022-10-06T19:28:03.997Z,98524.25
2022-10-06T19:30:48.038Z,98519.34
2022-10-06T19:33:39.973Z,98535.88
2022-10-06T19:36:23.253Z,98532.38
2022-10-06T19:39:17.434Z,98528.06
2022-10-06T19:42:17.658Z,98524.25
2022-10-06T19:45:07.052Z,98538.44
2022-10-06T19:47:49.269Z,98532.25
2022-10-06T19:50:38.016Z,98526.66
2022-10-06T19:53:20.328Z,98528.34
2022-10-06T19:56:17.028Z,98527.22
2022-10-06T19:59:07.236Z,98532.22
2022-10-06T20:01:50.046Z,98523.63
2022-10-06T20:04:40.644Z,98530.38
2022-10-06T20:07:22.964Z,98530.38
2022-10-06T20:10:12.047Z,98523.66
2022-10-06T20:13:01.027Z,98519.28
2022-10-06T20:15:43.162Z,98514.25
2022-10-06T20:18:33.032Z,98515.03
2022-10-06T20:21:26.239Z,98512.03
2022-10-06T20:24:12.135Z,98509.84
2022-10-06T20:26:55.115Z,98500.50
2022-10-06T20:29:44.972Z,98497.34
2022-10-06T20:32:33.962Z,98497.06
2022-10-06T20:35:16.315Z,98488.53
2022-10-06T20:38:04.978Z,98491.44
2022-10-06T20:40:51.240Z,98491.91
2022-10-06T20:43:40.967Z,98485.44
2022-10-06T20:46:29.932Z,98475.31
2022-10-06T20:49:29.945Z,98484.31
2022-10-06T20:52:21.897Z,98483.34
2022-10-06T20:55:13.961Z,98486.34
2022-10-06T20:58:08.982Z,98484.19
2022-10-06T21:00:57.319Z,98482.88
2022-10-06T21:03:40.051Z,98481.28
2022-10-06T21:06:31.257Z,98485.63
2022-10-06T21:09:15.984Z,98488.19
2022-10-06T21:11:58.516Z,98478.38
2022-10-06T21:14:50.030Z,98471.63
2022-10-06T21:17:38.300Z,98476.06
2022-10-06T21:20:20.987Z,98468.19
2022-10-06T21:23:04.212Z,98478.72
2022-10-06T21:25:53.045Z,98462.81
2022-10-06T21:28:43.407Z,98469.69
2022-10-06T21:31:28.086Z,98464.47
2022-10-06T21:34:11.472Z,98465.63
2022-10-06T21:37:00.015Z,98468.19
2022-10-06T21:39:50.055Z,98474.06
2022-10-06T21:42:32.303Z,98475.94
2022-10-06T21:45:24.220Z,98476.03
2022-10-06T21:48:07.264Z,98476.81
2022-10-06T21:51:02.008Z,98471.69
2022-10-06T21:53:44.248Z,98458.19
2022-10-06T21:56:34.056Z,98430.66
2022-10-06T21:59:37.832Z,98428.59
2022-10-06T22:02:27.050Z,98440.69
2022-10-06T22:05:15.976Z,98463.75
2022-10-06T22:07:58.154Z,98462.56
2022-10-06T22:10:46.986Z,98460.50
2022-10-06T22:13:37.238Z,98451.66
2022-10-06T22:16:23.054Z,98443.47
2022-10-06T22:19:14.332Z,98464.03
2022-10-06T22:21:57.036Z,98472.00
2022-10-06T22:24:45.270Z,98464.84
2022-10-06T22:27:26.974Z,98460.78
2022-10-06T22:30:15.989Z,98461.84
2022-10-06T22:32:58.260Z,98471.25
2022-10-06T22:35:46.989Z,98474.06
2022-10-06T22:38:29.309Z,98478.31
2022-10-06T22:41:20.988Z,98463.25
2022-10-06T22:44:05.273Z,98475.66
2022-10-06T22:46:55.379Z,98480.75
2022-10-06T22:49:37.278Z,98475.34
2022-10-06T22:52:26.033Z,98478.50
2022-10-06T22:55:08.266Z,98479.25
2022-10-06T22:58:02.983Z,98486.88
2022-10-06T23:00:46.260Z,98490.09
2022-10-06T23:03:35.187Z,98486.88
2022-10-06T23:06:26.291Z,98491.38
2022-10-06T23:09:09.033Z,98493.66
2022-10-06T23:11:57.266Z,98492.66
2022-10-06T23:14:38.975Z,98489.50
2022-10-06T23:17:21.173Z,98497.91
2022-10-06T23:20:09.982Z,98491.50
2022-10-06T23:22:58.366Z,98496.09
2022-10-06T23:25:44.981Z,98500.00
2022-10-06T23:28:27.220Z,98489.09
2022-10-06T23:31:15.968Z,98490.75
2022-10-06T23:34:04.979Z,98485.53
